Time;durP1;ratioP1;P1;durP2;ratioP2;P2;SDS_P1;SDS_P2;PMS_P1;PMS_P2;Temp;Humidity;BMP_temperature;BMP_pressure;BME280_temperature;BME280_humidity;BME280_pressure;Samples;Min_cycle;Max_cycle;Signal;HPM_P1;HPM_P2
2024/03/24 00:01:45;;;;;;;6.75;4.82;;;22.40;41.40;;;;;;10318837;28;20054;-56
2024/03/24 00:06:48;;;;;;;7.10;4.85;;;22.20;41.70;;;;;;10322619;28;20046;-60
2024/03/24 00:11:49;;;;;;;6.20;4.45;;;22.30;41.60;;;;;;10322560;28;20509;-57
2024/03/24 00:16:51;;;;;;;6.85;4.30;;;22.30;41.50;;;;;;10319441;28;20050;-57
2024/03/24 00:21:54;;;;;;;6.38;4.35;;;22.10;41.60;;;;;;10319169;28;20046;-56
2024/03/24 00:26:56;;;;;;;6.18;4.38;;;22.10;41.50;;;;;;10319470;28;20046;-57
2024/03/24 00:31:57;;;;;;;7.32;3.95;;;22.10;41.50;;;;;;10318842;28;20042;-58
2024/03/24 00:37:00;;;;;;;6.82;4.20;;;22.00;41.50;;;;;;10318992;28;20509;-60
2024/03/24 00:42:02;;;;;;;7.15;3.97;;;22.00;41.40;;;;;;10323873;28;20657;-58
2024/03/24 00:47:04;;;;;;;7.50;3.92;;;22.00;41.40;;;;;;10321641;28;20693;-55
2024/03/24 00:52:07;;;;;;;6.63;4.10;;;21.90;41.40;;;;;;10325136;28;20074;-57
2024/03/24 00:57:08;;;;;;;5.72;3.67;;;21.90;41.50;;;;;;10321986;28;20053;-55
2024/03/24 01:02:10;;;;;;;5.00;3.20;;;21.80;41.50;;;;;;10311875;28;20050;-58
2024/03/24 01:07:13;;;;;;;4.35;3.00;;;21.80;41.60;;;;;;10312639;28;20042;-56
2024/03/24 01:12:14;;;;;;;4.57;3.20;;;21.70;41.60;;;;;;10316852;28;20046;-55
2024/03/24 01:17:16;;;;;;;4.80;3.28;;;21.70;41.50;;;;;;10312817;28;20042;-55
2024/03/24 01:22:19;;;;;;;5.97;2.95;;;21.60;41.70;;;;;;10320841;28;20049;-59
2024/03/24 01:27:20;;;;;;;3.72;2.67;;;21.60;41.40;;;;;;10316663;28;20048;-53
2024/03/24 01:32:22;;;;;;;4.93;2.90;;;21.50;41.60;;;;;;10310989;28;20050;-58
2024/03/24 01:37:25;;;;;;;5.47;2.92;;;21.50;41.70;;;;;;10317759;28;20408;-60
2024/03/24 01:42:27;;;;;;;3.90;2.50;;;21.50;41.50;;;;;;10317610;28;20411;-57
2024/03/24 01:47:28;;;;;;;3.90;2.80;;;21.50;41.60;;;;;;10320042;28;20045;-57
2024/03/24 01:52:31;;;;;;;3.28;2.50;;;21.40;41.50;;;;;;10319035;28;20133;-55
2024/03/24 01:57:33;;;;;;;3.15;2.03;;;21.30;41.80;;;;;;10321169;28;20046;-53
2024/03/24 02:02:35;;;;;;;5.07;2.53;;;21.20;41.80;;;;;;10322996;28;20121;-56
2024/03/24 02:07:37;;;;;;;3.33;2.50;;;21.20;41.80;;;;;;10326476;28;20046;-54
2024/03/24 02:12:39;;;;;;;3.53;2.50;;;21.20;41.80;;;;;;10327223;28;20129;-58
2024/03/24 02:17:41;;;;;;;2.85;2.35;;;21.20;41.80;;;;;;10334547;28;20050;-53
2024/03/24 02:22:44;;;;;;;3.80;2.10;;;21.10;41.80;;;;;;10332118;28;20056;-55
2024/03/24 02:27:45;;;;;;;4.45;2.35;;;21.00;41.90;;;;;;10329555;28;20049;-54
2024/03/24 02:32:47;;;;;;;3.17;2.20;;;21.10;41.80;;;;;;10322479;28;20050;-59
2024/03/24 02:37:50;;;;;;;3.22;2.00;;;21.00;41.80;;;;;;10322253;28;20053;-59
2024/03/24 02:42:51;;;;;;;3.75;2.20;;;20.90;42.00;;;;;;10328324;28;20038;-57
2024/03/24 02:47:53;;;;;;;3.65;2.10;;;20.90;42.00;;;;;;10332030;28;20034;-54
2024/03/24 02:52:56;;;;;;;3.00;2.15;;;20.80;42.00;;;;;;10338068;28;20053;-56
2024/03/24 02:57:57;;;;;;;2.60;1.75;;;20.90;42.00;;;;;;10338318;28;20049;-58
2024/03/24 03:02:59;;;;;;;2.47;1.70;;;20.80;42.10;;;;;;10327699;28;20126;-58
2024/03/24 03:08:02;;;;;;;3.58;1.90;;;20.80;42.10;;;;;;10324118;28;20042;-58
2024/03/24 03:13:04;;;;;;;2.47;1.67;;;20.70;42.10;;;;;;10321826;28;20561;-60
2024/03/24 03:18:06;;;;;;;3.67;1.90;;;20.70;42.10;;;;;;10321388;28;20034;-59
2024/03/24 03:23:09;;;;;;;2.80;1.80;;;20.70;42.00;;;;;;10327278;28;20567;-60
2024/03/24 03:28:11;;;;;;;2.58;1.70;;;20.70;41.90;;;;;;10325160;28;20507;-59
2024/03/24 03:33:12;;;;;;;2.35;1.60;;;20.60;42.10;;;;;;10328148;28;20504;-57
2024/03/24 03:38:16;;;;;;;3.13;1.77;;;20.60;42.10;;;;;;10327749;28;20109;-57
2024/03/24 03:43:19;;;;;;;2.70;1.80;;;20.50;42.10;;;;;;10319548;28;20118;-59
2024/03/24 03:48:21;;;;;;;2.92;1.75;;;20.50;42.00;;;;;;10321041;28;20042;-60
2024/03/24 03:53:25;;;;;;;2.22;1.65;;;20.50;41.90;;;;;;10326276;28;20113;-60
2024/03/24 03:58:26;;;;;;;2.58;1.60;;;20.40;42.20;;;;;;10324590;28;20034;-56
2024/03/24 04:03:28;;;;;;;3.42;1.58;;;20.20;42.50;;;;;;10321169;28;20046;-59
2024/03/24 04:08:31;;;;;;;2.30;1.80;;;19.70;43.50;;;;;;10324750;28;20043;-57
2024/03/24 04:13:32;;;;;;;2.45;1.70;;;20.00;43.80;;;;;;10327390;28;20088;-60
2024/03/24 04:18:34;;;;;;;3.38;1.60;;;20.80;42.20;;;;;;10326160;28;20046;-58
2024/03/24 04:23:37;;;;;;;2.55;1.60;;;21.20;41.60;;;;;;10322412;28;20050;-60
2024/03/24 04:28:39;;;;;;;3.65;2.10;;;21.40;41.20;;;;;;10318731;28;20046;-60
2024/03/24 04:33:43;;;;;;;2.20;1.95;;;21.50;41.30;;;;;;10326467;28;20053;-59
2024/03/24 04:38:46;;;;;;;3.35;1.85;;;21.60;41.00;;;;;;10327958;28;20432;-58
2024/03/24 04:43:48;;;;;;;4.18;2.00;;;21.80;40.70;;;;;;10328206;28;20055;-60
2024/03/24 04:48:49;;;;;;;3.05;1.85;;;21.80;40.60;;;;;;10329921;28;20122;-59
2024/03/24 04:53:52;;;;;;;2.45;1.80;;;21.80;40.30;;;;;;10323594;28;20053;-58
2024/03/24 04:58:54;;;;;;;3.42;1.80;;;22.00;40.10;;;;;;10316148;28;20562;-57
2024/03/24 05:03:55;;;;;;;2.55;2.00;;;22.00;40.20;;;;;;10315968;28;20067;-58
2024/03/24 05:08:58;;;;;;;2.80;1.58;;;22.00;40.40;;;;;;10323396;28;20052;-58
2024/03/24 05:14:00;;;;;;;2.80;1.70;;;22.00;40.40;;;;;;10321875;28;20046;-58
2024/03/24 05:19:03;;;;;;;2.35;1.85;;;22.00;40.40;;;;;;10326586;28;20057;-58
2024/03/24 05:24:06;;;;;;;2.33;1.88;;;22.00;40.50;;;;;;10325726;28;20569;-58
2024/03/24 05:29:08;;;;;;;1.98;1.73;;;21.90;40.50;;;;;;10318092;28;20038;-58
2024/03/24 05:34:09;;;;;;;2.42;1.67;;;21.90;40.50;;;;;;10320791;28;20042;-60
2024/03/24 05:39:12;;;;;;;3.30;1.60;;;22.00;40.40;;;;;;10324093;28;20436;-58
2024/03/24 05:44:14;;;;;;;2.13;1.60;;;21.90;40.50;;;;;;10318345;28;20068;-58
2024/03/24 05:49:16;;;;;;;2.33;1.67;;;21.90;40.50;;;;;;10319299;28;20041;-60
2024/03/24 05:54:19;;;;;;;2.65;1.58;;;22.00;40.40;;;;;;10321024;28;20255;-58
2024/03/24 05:59:21;;;;;;;3.08;1.45;;;22.00;40.30;;;;;;10326712;28;20049;-58
2024/03/24 06:04:23;;;;;;;2.20;1.40;;;22.10;40.10;;;;;;10325534;28;20057;-60
2024/03/24 06:09:26;;;;;;;3.65;1.63;;;22.10;40.20;;;;;;10317813;28;20047;-60
2024/03/24 06:14:27;;;;;;;1.55;1.20;;;22.20;40.10;;;;;;10320233;28;20110;-59
2024/03/24 06:19:29;;;;;;;1.75;1.20;;;22.20;40.10;;;;;;10318386;28;20492;-59
2024/03/24 06:24:32;;;;;;;1.40;1.23;;;22.20;40.00;;;;;;10318334;28;20161;-58
2024/03/24 06:29:33;;;;;;;1.75;1.33;;;22.20;40.20;;;;;;10324943;28;20400;-60
2024/03/24 06:34:35;;;;;;;1.60;1.10;;;22.30;40.00;;;;;;10325603;28;20046;-60
2024/03/24 06:39:38;;;;;;;4.78;1.38;;;22.30;40.00;;;;;;10318553;28;20112;-59
2024/03/24 06:44:41;;;;;;;6.10;1.40;;;22.20;41.30;;;;;;10321537;28;20695;-57
2024/03/24 06:49:43;;;;;;;5.60;1.13;;;22.10;42.10;;;;;;10319393;28;20398;-58
2024/03/24 06:54:46;;;;;;;2.95;1.15;;;22.10;42.40;;;;;;10317842;28;20057;-61
2024/03/24 06:59:48;;;;;;;4.50;1.35;;;22.10;42.70;;;;;;10314831;28;20409;-59
2024/03/24 07:04:49;;;;;;;6.28;1.40;;;22.10;42.90;;;;;;10318892;28;20520;-59
2024/03/24 07:09:52;;;;;;;5.95;1.20;;;22.20;43.00;;;;;;10313363;28;20038;-57
2024/03/24 07:14:54;;;;;;;2.08;1.08;;;22.20;43.60;;;;;;10316263;28;20043;-58
2024/03/24 07:19:56;;;;;;;7.97;1.30;;;22.20;43.80;;;;;;10313834;28;20039;-58
2024/03/24 07:24:59;;;;;;;8.00;1.10;;;22.20;43.80;;;;;;10311780;28;20061;-57
2024/03/24 07:30:00;;;;;;;6.07;1.40;;;22.20;44.00;;;;;;10311255;28;20038;-59
2024/03/24 07:35:02;;;;;;;4.10;1.15;;;22.20;44.20;;;;;;10322446;28;20044;-60
2024/03/24 07:40:07;;;;;;;3.58;1.05;;;22.20;44.60;;;;;;10324967;28;20049;-56
2024/03/24 07:45:09;;;;;;;4.13;0.90;;;22.30;44.90;;;;;;10324659;28;20069;-59
2024/03/24 07:50:11;;;;;;;4.65;1.20;;;22.30;45.00;;;;;;10323214;28;20065;-58
2024/03/24 07:55:14;;;;;;;12.48;3.17;;;22.40;45.40;;;;;;10322039;28;20046;-55
2024/03/24 08:00:16;;;;;;;14.30;3.47;;;22.40;46.00;;;;;;10323823;28;20044;-60
2024/03/24 08:05:22;;;;;;;10.73;3.20;;;22.40;46.40;;;;;;10322671;28;20046;-58
2024/03/24 08:10:25;;;;;;;17.48;3.58;;;22.40;46.80;;;;;;10320168;28;20070;-60
2024/03/24 08:15:26;;;;;;;11.70;3.17;;;22.50;47.20;;;;;;10319660;28;20066;-60
2024/03/24 08:20:28;;;;;;;25.48;3.38;;;22.40;47.50;;;;;;10319390;28;20050;-60
2024/03/24 08:25:31;;;;;;;16.77;3.65;;;22.50;49.00;;;;;;10317219;28;20131;-60
2024/03/24 08:30:32;;;;;;;18.98;4.00;;;22.50;50.20;;;;;;10318260;28;20493;-58
2024/03/24 08:35:34;;;;;;;47.03;8.27;;;22.50;50.90;;;;;;10325347;28;20493;-61
2024/03/24 08:40:37;;;;;;;45.53;10.55;;;22.50;50.90;;;;;;10318427;28;20503;-61
2024/03/24 08:45:38;;;;;;;37.75;8.20;;;22.60;51.00;;;;;;10322700;28;20058;-62
2024/03/24 08:50:40;;;;;;;23.88;7.15;;;22.60;50.60;;;;;;10322820;28;20046;-60
2024/03/24 08:55:43;;;;;;;29.73;6.30;;;22.50;50.50;;;;;;10325288;28;20050;-59
2024/03/24 09:00:47;;;;;;;26.83;6.25;;;22.70;50.30;;;;;;10325691;28;20043;-60
2024/03/24 09:05:49;;;;;;;26.50;5.47;;;22.60;50.90;;;;;;10320736;28;20089;-61
2024/03/24 09:10:52;;;;;;;18.80;5.47;;;22.70;50.80;;;;;;10320208;28;20149;-60
2024/03/24 09:15:54;;;;;;;19.35;5.78;;;22.70;50.20;;;;;;10367019;28;20112;-59
2024/03/24 09:21:01;;;;;;;17.80;4.93;;;22.70;50.10;;;;;;10366815;28;20044;-63
2024/03/24 09:26:04;;;;;;;18.23;5.63;;;22.70;50.20;;;;;;10363195;28;20496;-60
2024/03/24 09:31:06;;;;;;;14.80;4.95;;;22.70;50.10;;;;;;10357926;28;20042;-63
2024/03/24 09:36:15;;;;;;;13.05;3.70;;;22.80;50.20;;;;;;10359030;28;20046;-62
2024/03/24 09:41:18;;;;;;;12.80;3.65;;;22.80;48.90;;;;;;10350814;28;20046;-60
2024/03/24 09:46:20;;;;;;;12.70;4.07;;;22.80;48.50;;;;;;10349830;28;20056;-60
2024/03/24 09:51:27;;;;;;;12.95;3.55;;;22.80;48.20;;;;;;10345640;28;20080;-62
2024/03/24 09:56:30;;;;;;;9.63;3.58;;;22.80;48.10;;;;;;10358884;28;20053;-62
2024/03/24 10:01:32;;;;;;;10.30;3.40;;;22.90;47.70;;;;;;10358019;28;20103;-61
2024/03/24 10:06:34;;;;;;;8.55;2.88;;;22.80;47.60;;;;;;10364445;28;20140;-58
2024/03/24 10:11:37;;;;;;;5.30;2.30;;;22.80;47.80;;;;;;10358617;28;20100;-61
2024/03/24 10:16:39;;;;;;;7.82;2.92;;;22.90;47.30;;;;;;10359772;28;19921;-61
2024/03/24 10:21:40;;;;;;;6.90;2.60;;;22.90;47.10;;;;;;10359149;28;20504;-59
2024/03/24 10:26:43;;;;;;;8.20;2.78;;;22.80;46.80;;;;;;10356682;28;20042;-61
2024/03/24 10:31:46;;;;;;;7.43;2.70;;;22.90;46.60;;;;;;10354833;28;20046;-61
2024/03/24 10:36:48;;;;;;;5.90;2.30;;;22.90;45.80;;;;;;10361667;28;20137;-61
2024/03/24 10:41:51;;;;;;;7.07;2.33;;;22.90;45.00;;;;;;10361523;28;20049;-60
2024/03/24 10:46:53;;;;;;;6.13;1.45;;;22.90;45.10;;;;;;10353108;28;20050;-61
2024/03/24 10:51:56;;;;;;;4.00;1.80;;;22.90;44.70;;;;;;10354522;28;20046;-61
2024/03/24 10:56:59;;;;;;;4.35;2.00;;;22.90;44.20;;;;;;10351358;28;20053;-61
2024/03/24 11:02:00;;;;;;;5.60;1.67;;;23.00;44.00;;;;;;10350881;28;20075;-61
2024/03/24 11:07:03;;;;;;;3.60;1.55;;;23.00;43.60;;;;;;10360713;28;20507;-60
2024/03/24 11:12:07;;;;;;;2.78;1.42;;;23.00;43.70;;;;;;10366492;28;20045;-61
2024/03/24 11:17:08;;;;;;;4.03;1.35;;;23.00;43.20;;;;;;10368580;28;20114;-61
2024/03/24 11:22:10;;;;;;;2.30;1.23;;;23.00;42.70;;;;;;10370912;28;20052;-61
2024/03/24 11:27:16;;;;;;;4.65;1.13;;;23.00;42.80;;;;;;10368857;28;20136;-61
2024/03/24 11:32:18;;;;;;;8.73;2.75;;;23.00;43.00;;;;;;10370736;28;20504;-62
2024/03/24 11:37:20;;;;;;;7.53;2.90;;;22.90;43.50;;;;;;10362987;28;20132;-60
2024/03/24 11:42:30;;;;;;;7.95;2.78;;;23.00;44.10;;;;;;10366727;28;20046;-60
2024/03/24 11:47:32;;;;;;;6.55;2.80;;;23.10;44.40;;;;;;10370147;28;20076;-62
2024/03/24 11:52:33;;;;;;;6.55;2.55;;;23.10;44.80;;;;;;10367865;28;20096;-60
2024/03/24 11:57:37;;;;;;;10.35;2.17;;;23.00;45.30;;;;;;10364209;28;20057;-61
2024/03/24 12:02:38;;;;;;;7.25;2.22;;;23.20;44.90;;;;;;10364825;28;20081;-61
2024/03/24 12:07:40;;;;;;;6.35;2.20;;;23.20;45.00;;;;;;10361725;28;20064;-61
2024/03/24 12:12:44;;;;;;;3.55;1.65;;;23.20;44.80;;;;;;10362442;28;20072;-60
2024/03/24 12:17:45;;;;;;;5.28;1.95;;;23.20;44.20;;;;;;10346563;28;20073;-61
2024/03/24 12:22:47;;;;;;;8.02;2.00;;;23.20;44.00;;;;;;10360978;28;20060;-59
2024/03/24 12:27:55;;;;;;;12.95;1.70;;;23.20;44.90;;;;;;10369259;28;20050;-61
2024/03/24 12:32:57;;;;;;;5.10;1.70;;;23.20;45.10;;;;;;10362563;28;20046;-61
2024/03/24 12:37:59;;;;;;;7.85;1.85;;;23.20;44.70;;;;;;10365714;28;20038;-61
2024/03/24 12:43:12;;;;;;;21.08;1.85;;;23.30;44.50;;;;;;10365717;28;20054;-62
2024/03/24 12:48:16;;;;;;;6.40;1.70;;;23.30;45.30;;;;;;10349992;28;20038;-62
2024/03/24 12:53:28;;;;;;;6.72;1.38;;;23.30;45.20;;;;;;10357965;28;20074;-62
2024/03/24 12:58:34;;;;;;;10.68;1.75;;;23.30;44.90;;;;;;10365705;28;20580;-62
2024/03/24 13:03:36;;;;;;;9.82;1.50;;;23.30;45.20;;;;;;10363220;28;20050;-61
2024/03/24 13:08:38;;;;;;;7.70;1.52;;;23.40;45.20;;;;;;10364536;28;20136;-60
2024/03/24 13:13:41;;;;;;;5.93;1.25;;;23.40;44.20;;;;;;10358682;28;20511;-60
2024/03/24 13:18:45;;;;;;;6.65;1.40;;;23.40;43.90;;;;;;10362469;28;20101;-61
2024/03/24 13:23:47;;;;;;;2.53;1.10;;;23.40;43.70;;;;;;10361535;28;20046;-58
2024/03/24 13:28:50;;;;;;;10.77;1.65;;;23.50;43.50;;;;;;10363538;28;20046;-57
2024/03/24 13:33:52;;;;;;;6.63;1.20;;;23.50;44.10;;;;;;10371133;28;20052;-54
2024/03/24 13:38:55;;;;;;;6.57;1.15;;;23.60;44.40;;;;;;10368965;28;20061;-58
2024/03/24 13:44:15;;;;;;;3.45;1.25;;;23.60;44.10;;;;;;10372433;28;20037;-59
2024/03/24 13:49:17;;;;;;;12.85;1.45;;;23.60;43.80;;;;;;10364956;28;20042;-62
2024/03/24 13:54:19;;;;;;;12.15;1.50;;;23.60;44.80;;;;;;10360693;28;20056;-62
2024/03/24 13:59:23;;;;;;;6.57;1.60;;;23.60;44.80;;;;;;10358032;28;20069;-60
2024/03/24 14:04:24;;;;;;;8.38;1.90;;;23.60;45.60;;;;;;10351340;28;20404;-62
2024/03/24 14:09:26;;;;;;;10.80;2.17;;;23.70;47.10;;;;;;10354539;28;20411;-62
2024/03/24 14:14:38;;;;;;;6.18;1.42;;;23.70;47.10;;;;;;10360585;28;20089;-59
2024/03/24 14:19:41;;;;;;;7.43;1.80;;;23.60;46.70;;;;;;10362917;28;20145;-56
2024/03/24 14:24:47;;;;;;;8.13;1.92;;;23.70;47.90;;;;;;10364914;28;20049;-59
2024/03/24 14:29:50;;;;;;;12.32;1.83;;;23.70;48.50;;;;;;10363504;28;20059;-57
2024/03/24 14:34:52;;;;;;;5.85;1.95;;;23.80;48.60;;;;;;10364908;28;20050;-61
2024/03/24 14:40:05;;;;;;;4.53;1.40;;;23.80;48.40;;;;;;10352708;28;20046;-62
2024/03/24 14:45:16;;;;;;;7.55;1.30;;;23.90;48.20;;;;;;10357834;28;20104;-61
2024/03/24 14:50:18;;;;;;;6.38;1.45;;;24.00;48.00;;;;;;10363674;28;20415;-61
2024/03/24 14:55:19;;;;;;;3.42;1.15;;;24.00;47.80;;;;;;10361970;28;20042;-61
2024/03/24 15:00:23;;;;;;;4.45;1.38;;;24.10;47.70;;;;;;10363330;28;20056;-60
2024/03/24 15:05:25;;;;;;;3.97;1.15;;;24.10;47.60;;;;;;10366322;28;20096;-59
2024/03/24 15:10:26;;;;;;;4.47;1.27;;;24.10;47.60;;;;;;10361442;28;20571;-61
2024/03/24 15:15:29;;;;;;;3.10;1.20;;;24.10;47.40;;;;;;10359440;28;20133;-60
2024/03/24 15:20:31;;;;;;;4.38;1.15;;;24.20;47.40;;;;;;10354550;28;20412;-60
2024/03/24 15:25:33;;;;;;;1.30;0.93;;;24.20;47.30;;;;;;10357924;28;20053;-61
2024/03/24 15:30:36;;;;;;;3.88;1.00;;;24.20;47.30;;;;;;10356830;28;20050;-61
2024/03/24 15:35:39;;;;;;;1.00;0.90;;;24.30;47.30;;;;;;10359912;28;20424;-60
2024/03/24 15:40:41;;;;;;;2.67;1.10;;;24.30;47.30;;;;;;10360427;28;20558;-61
2024/03/24 15:45:44;;;;;;;3.50;0.98;;;24.50;47.20;;;;;;10359260;28;20050;-59
2024/03/24 15:50:46;;;;;;;1.52;0.93;;;24.50;47.20;;;;;;10357094;28;20046;-61
2024/03/24 15:55:51;;;;;;;3.53;0.90;;;24.50;47.40;;;;;;10356136;28;20069;-61
2024/03/24 16:00:57;;;;;;;2.13;0.90;;;24.50;47.20;;;;;;10354013;28;20045;-60
2024/03/24 16:05:59;;;;;;;1.67;0.70;;;24.50;47.20;;;;;;10363191;28;20053;-61
2024/03/24 16:11:03;;;;;;;1.35;0.80;;;24.50;47.30;;;;;;10357847;28;20050;-61
2024/03/24 16:16:06;;;;;;;2.72;0.90;;;24.50;47.20;;;;;;10359070;28;20393;-61
2024/03/24 16:21:12;;;;;;;2.20;0.90;;;24.50;47.40;;;;;;10360976;28;20171;-58
2024/03/24 16:26:15;;;;;;;1.65;0.80;;;24.50;47.30;;;;;;10358583;28;20050;-61
2024/03/24 16:31:19;;;;;;;1.30;0.80;;;24.50;47.30;;;;;;10358674;28;20042;-61
2024/03/24 16:36:22;;;;;;;5.38;1.20;;;24.50;47.30;;;;;;10360055;28;20610;-61
2024/03/24 16:41:24;;;;;;;1.90;1.00;;;24.40;47.50;;;;;;10360562;28;20121;-61
2024/03/24 16:46:27;;;;;;;3.70;1.27;;;24.40;48.10;;;;;;10350396;28;20046;-57
2024/03/24 16:51:28;;;;;;;11.23;1.00;;;24.50;48.60;;;;;;10325398;28;20493;-58
2024/03/24 16:56:30;;;;;;;4.50;1.27;;;24.50;48.80;;;;;;10358228;28;20449;-60
2024/03/24 17:01:33;;;;;;;16.50;4.68;;;24.60;48.50;;;;;;10356413;28;20502;-56
2024/03/24 17:06:35;;;;;;;23.95;11.27;;;24.60;50.00;;;;;;10358826;28;20072;-59
2024/03/24 17:11:36;;;;;;;12.63;7.32;;;24.60;50.70;;;;;;10354078;28;20049;-58
2024/03/24 17:16:39;;;;;;;15.07;6.20;;;24.70;51.10;;;;;;10327579;28;20132;-59
2024/03/24 17:21:41;;;;;;;10.45;5.32;;;24.70;51.70;;;;;;10357096;28;20072;-61
2024/03/24 17:26:43;;;;;;;7.57;5.05;;;24.70;52.10;;;;;;10357341;28;20117;-61
2024/03/24 17:31:46;;;;;;;7.47;4.13;;;24.70;52.00;;;;;;10318910;28;20454;-61
2024/03/24 17:36:47;;;;;;;6.93;3.13;;;24.90;51.70;;;;;;10319201;28;20055;-59
2024/03/24 17:41:49;;;;;;;11.00;3.30;;;24.90;50.40;;;;;;10318021;28;20049;-58
2024/03/24 17:46:52;;;;;;;6.20;2.83;;;24.90;50.00;;;;;;10313742;28;20700;-57
2024/03/24 17:51:54;;;;;;;8.02;2.40;;;25.00;50.50;;;;;;10319354;28;20057;-58
2024/03/24 17:56:56;;;;;;;5.35;2.28;;;25.00;50.30;;;;;;10313531;28;20501;-59
2024/03/24 18:01:59;;;;;;;3.65;2.25;;;25.10;49.90;;;;;;10317265;28;20046;-58
2024/03/24 18:12:20;;;;;;;4.38;1.80;;;25.20;49.20;;;;;;10318155;28;20042;-53
2024/03/24 18:17:23;;;;;;;5.35;2.05;;;25.20;48.40;;;;;;10316252;28;20133;-60
2024/03/24 18:22:24;;;;;;;4.72;1.73;;;25.20;46.60;;;;;;10311135;28;20398;-58
2024/03/24 18:27:26;;;;;;;7.93;1.90;;;25.20;46.40;;;;;;10321039;28;20054;-59
2024/03/24 18:32:29;;;;;;;3.42;1.83;;;25.20;45.70;;;;;;10318527;28;20046;-59
2024/03/24 18:37:31;;;;;;;4.00;1.50;;;25.10;45.30;;;;;;10317634;28;20397;-59
2024/03/24 18:42:33;;;;;;;5.40;1.60;;;25.10;44.90;;;;;;10320272;28;20047;-59
2024/03/24 18:47:36;;;;;;;4.43;1.60;;;25.20;44.40;;;;;;10323424;28;20684;-59
2024/03/24 18:52:40;;;;;;;5.38;1.30;;;25.10;44.90;;;;;;10322693;28;20050;-59
2024/03/24 18:57:42;;;;;;;8.50;1.50;;;25.00;45.30;;;;;;10319192;28;20129;-60
2024/03/24 19:02:45;;;;;;;4.15;1.70;;;25.00;45.50;;;;;;10320965;28;20101;-59
2024/03/24 19:07:47;;;;;;;2.88;1.20;;;25.00;45.70;;;;;;10322047;28;20084;-60
2024/03/24 19:12:50;;;;;;;5.18;1.50;;;24.90;46.10;;;;;;10317547;28;20047;-60
2024/03/24 19:17:54;;;;;;;2.65;1.20;;;24.90;46.50;;;;;;10320522;28;20129;-59
2024/03/24 19:22:56;;;;;;;6.07;1.50;;;24.80;46.80;;;;;;10319343;28;20104;-59
2024/03/24 19:27:57;;;;;;;4.13;1.02;;;24.90;46.90;;;;;;10321609;28;20141;-58
2024/03/24 19:33:00;;;;;;;2.70;1.33;;;24.90;47.00;;;;;;10323032;28;20519;-61
2024/03/24 19:38:02;;;;;;;3.92;1.33;;;24.90;47.00;;;;;;10325199;28;20527;-57
2024/03/24 19:43:04;;;;;;;5.97;1.30;;;24.80;47.30;;;;;;10321699;28;20073;-58
2024/03/24 19:48:08;;;;;;;1.90;1.17;;;24.70;47.60;;;;;;10320514;28;20053;-58
2024/03/24 19:53:09;;;;;;;2.95;1.23;;;24.70;47.50;;;;;;10311823;28;20050;-55
2024/03/24 19:58:11;;;;;;;2.40;1.05;;;24.70;47.40;;;;;;10314508;28;20050;-60
2024/03/24 20:03:14;;;;;;;1.45;0.90;;;24.70;47.40;;;;;;10308913;28;20052;-56
2024/03/24 20:08:15;;;;;;;2.47;1.20;;;24.90;47.00;;;;;;10320934;28;20094;-60
2024/03/24 20:13:17;;;;;;;3.33;1.23;;;25.40;45.80;;;;;;10314633;28;20470;-58
2024/03/24 20:18:20;;;;;;;4.63;1.20;;;25.40;45.60;;;;;;10317914;28;20101;-58
2024/03/24 20:23:22;;;;;;;5.00;1.30;;;25.40;45.60;;;;;;10312570;28;20053;-59
2024/03/24 20:28:24;;;;;;;3.38;1.00;;;25.30;45.90;;;;;;10317887;28;20053;-58
2024/03/24 20:33:27;;;;;;;2.72;1.10;;;25.20;46.30;;;;;;10312135;28;20047;-59
2024/03/24 20:38:29;;;;;;;2.50;1.25;;;24.80;47.20;;;;;;10310428;28;20079;-59
2024/03/24 20:43:31;;;;;;;5.10;1.15;;;24.70;47.40;;;;;;10308997;28;20246;-59
2024/03/24 20:48:34;;;;;;;2.38;1.13;;;24.80;47.00;;;;;;10314645;28;20583;-60
2024/03/24 20:53:36;;;;;;;3.55;1.30;;;25.10;45.60;;;;;;10316682;28;20128;-60
2024/03/24 20:58:38;;;;;;;2.53;1.13;;;25.30;45.10;;;;;;10317519;28;20054;-60
2024/03/24 21:03:41;;;;;;;1.95;0.90;;;25.20;45.00;;;;;;10321339;28;20046;-58
2024/03/24 21:08:43;;;;;;;2.42;1.20;;;25.20;44.90;;;;;;10307823;28;20429;-58
2024/03/24 21:13:45;;;;;;;1.95;1.00;;;25.00;44.80;;;;;;10309686;28;20046;-58
2024/03/24 21:18:49;;;;;;;1.90;0.93;;;25.00;44.80;;;;;;10304113;28;20106;-57
2024/03/24 21:23:52;;;;;;;2.08;1.08;;;24.80;45.00;;;;;;10311416;28;20053;-59
2024/03/24 21:28:53;;;;;;;6.57;1.25;;;24.70;44.80;;;;;;10312668;28;20058;-56
2024/03/24 21:33:56;;;;;;;1.92;1.00;;;24.70;44.70;;;;;;10315274;28;20054;-58
2024/03/24 21:44:17;;;;;;;1.23;0.90;;;24.50;44.90;;;;;;10308261;28;20414;-59
2024/03/24 21:49:20;;;;;;;1.95;0.90;;;24.30;45.20;;;;;;10307736;28;20138;-60
2024/03/24 21:54:22;;;;;;;1.95;1.10;;;24.20;45.40;;;;;;10315156;28;20046;-55
2024/03/24 21:59:23;;;;;;;1.42;0.95;;;24.10;45.50;;;;;;10313229;28;20089;-59
2024/03/24 22:04:26;;;;;;;2.88;1.10;;;23.90;45.80;;;;;;10341015;28;20050;-62
2024/03/24 22:09:28;;;;;;;1.40;1.30;;;23.90;45.70;;;;;;10323020;28;20048;-59
2024/03/24 22:14:30;;;;;;;1.73;1.25;;;23.80;45.80;;;;;;10328911;28;20046;-62
2024/03/24 22:19:33;;;;;;;1.75;1.40;;;23.70;46.00;;;;;;10329028;28;20089;-60
2024/03/24 22:24:35;;;;;;;2.78;1.63;;;23.60;46.10;;;;;;10330717;28;20142;-58
2024/03/24 22:29:36;;;;;;;2.45;1.63;;;23.40;46.30;;;;;;10322445;28;20473;-59
2024/03/24 22:34:39;;;;;;;3.13;1.80;;;23.40;46.20;;;;;;10331864;28;20054;-59
2024/03/24 22:39:41;;;;;;;2.80;2.00;;;23.30;46.30;;;;;;10333862;28;20057;-59
2024/03/24 22:44:42;;;;;;;2.25;1.88;;;23.30;46.40;;;;;;10334769;28;20051;-59
2024/03/24 22:49:45;;;;;;;3.03;2.17;;;23.30;46.40;;;;;;10324569;28;20137;-61
2024/03/24 22:54:47;;;;;;;2.47;2.13;;;23.20;46.50;;;;;;10328001;28;20064;-62
2024/03/24 22:59:49;;;;;;;3.60;2.28;;;23.20;46.30;;;;;;10329768;28;20074;-61
2024/03/24 23:04:52;;;;;;;2.92;2.50;;;23.10;46.40;;;;;;10357254;28;20049;-62
2024/03/24 23:09:54;;;;;;;3.33;2.42;;;23.10;46.50;;;;;;10378020;28;20059;-58
2024/03/24 23:14:56;;;;;;;3.33;2.95;;;22.90;46.80;;;;;;10375674;28;20507;-60
2024/03/24 23:19:59;;;;;;;3.65;2.83;;;22.90;46.70;;;;;;10378834;28;20050;-60
2024/03/24 23:25:01;;;;;;;3.92;3.40;;;22.80;46.80;;;;;;10352539;28;20047;-59
2024/03/24 23:30:03;;;;;;;5.13;3.33;;;22.80;47.00;;;;;;10360241;28;20058;-62
2024/03/24 23:35:10;;;;;;;5.68;3.72;;;22.70;47.10;;;;;;10343370;28;20050;-59
2024/03/24 23:40:11;;;;;;;4.43;4.03;;;22.60;47.30;;;;;;10321573;28;20058;-60
2024/03/24 23:45:13;;;;;;;6.05;4.30;;;22.60;47.10;;;;;;10329078;28;20431;-62
2024/03/24 23:50:17;;;;;;;5.22;4.43;;;22.40;47.40;;;;;;10316490;28;20050;-58
2024/03/24 23:55:19;;;;;;;6.15;5.07;;;22.30;47.70;;;;;;10316848;28;20046;-57
